Portada
METAR-TAF:

METAR-TAF

Aeropuertos :

Aeropuerto Internacional de Kuwait

Ciudad de Kuwait, Kuwait

latitud: 29-13N, longitud: 047-59E, altitud: 55 m

Observación

El informe se hizo hace 1 hora y 6 minutos, a las 05:00 UTC
Viento 16 kt del norte-noroeste
Temperatura 37°C
Humedad 18%
Presión 1002 hPa
Visibilidad 10 km o más
sin nubes por debajo de 1500 m y sin presencia de cumulonimbus.

METAR: OKBK 210500Z 34016KT CAVOK 37/09 Q1002 NOSIG

Hora: 09:06 (06:06 UTC)

Pronóstico

El informe se hizo hace 7 horas y 21 minutos, a las 22:45 UTC
Pronóstico válido del 21 a las 00 UTC al 22 a las 06 UTC
Viento 10 kt del norte-noroeste con ráfagas de 20 kt
Visibilidad: 7000 m
Cielo despejado

TAF: OKBK 202245Z 2100/2206 34010G20KT 7000 SKC

Observaciones y pronósticos meteorológicos de más de 4000 aeropuertos (mensajes METAR y TAF).

Los puntos amarillos y rojos representan las estaciones disponibles.

Ponga el ratón en el punto deseado para ver el nombre de la estación.

Haga clic para ver las observaciones y los pronósticos meteorológicos.

Para cambiar el mapa : haga clic en los botones verdes con una cruz de color negro para hacer un zoom, en el botón verde con un guión para alejar o en las flechas verdes para mapas adyacentes.


METAR-TAF: